Time;durP1;ratioP1;P1;durP2;ratioP2;P2;SDS_P1;SDS_P2;PMS_P1;PMS_P2;Temp;Humidity;BMP_temperature;BMP_pressure;BME280_temperature;BME280_humidity;BME280_pressure;Samples;Min_cycle;Max_cycle;Signal;HPM_P1;HPM_P2
2022/04/21 00:00:22;;;;;;;9.18;6.82;;;8.40;99.90;;;;;;5006105;28;20080;-49
2022/04/21 00:02:48;;;;;;;10.07;6.43;;;8.40;99.90;;;;;;5021618;28;20525;-51
2022/04/21 00:05:15;;;;;;;8.55;6.40;;;8.30;99.90;;;;;;5018271;28;20459;-50
2022/04/21 00:07:41;;;;;;;7.80;5.95;;;8.30;99.90;;;;;;5033619;28;20041;-51
2022/04/21 00:10:08;;;;;;;9.38;6.53;;;8.20;99.90;;;;;;4973479;28;20053;-53
2022/04/21 00:12:35;;;;;;;8.57;5.75;;;8.20;99.90;;;;;;5023574;28;20045;-51
2022/04/21 00:15:03;;;;;;;9.57;6.75;;;8.20;99.90;;;;;;5023848;28;20041;-54
2022/04/21 00:17:29;;;;;;;9.57;6.43;;;8.20;99.90;;;;;;5022109;28;20045;-52
2022/04/21 00:19:55;;;;;;;9.20;6.47;;;8.10;99.90;;;;;;5021972;28;20049;-54
2022/04/21 00:25:08;;;;;;;11.43;7.47;;;8.10;99.90;;;;;;5022319;28;20037;-65
2022/04/21 00:27:41;;;;;;;9.25;7.07;;;8.10;99.90;;;;;;5019632;28;20037;-65
2022/04/21 00:30:09;;;;;;;10.40;7.30;;;8.10;99.90;;;;;;5022967;28;20045;-65
2022/04/21 00:32:37;;;;;;;9.02;6.85;;;8.10;99.90;;;;;;5021190;28;20095;-64
2022/04/21 00:35:04;;;;;;;9.25;7.00;;;8.10;99.90;;;;;;5022173;28;20053;-64
2022/04/21 00:37:30;;;;;;;9.10;7.28;;;8.00;99.90;;;;;;5015225;28;20640;-64
2022/04/21 00:39:56;;;;;;;10.90;7.40;;;8.00;99.90;;;;;;5021421;28;20051;-65
2022/04/21 00:42:23;;;;;;;10.77;7.47;;;7.90;99.90;;;;;;5023176;28;20085;-64
2022/04/21 00:44:50;;;;;;;10.60;7.70;;;7.90;99.90;;;;;;5021585;28;20426;-64
2022/04/21 00:47:17;;;;;;;11.13;7.35;;;7.90;99.90;;;;;;5024450;28;20107;-64
2022/04/21 00:49:45;;;;;;;9.60;7.28;;;7.80;99.90;;;;;;5018828;28;20053;-64
2022/04/21 00:52:13;;;;;;;9.80;7.43;;;7.80;99.90;;;;;;5005898;28;20651;-64
2022/04/21 00:54:39;;;;;;;10.18;6.90;;;7.80;99.90;;;;;;5022823;28;20124;-64
2022/04/21 00:57:05;;;;;;;9.40;7.25;;;7.80;99.90;;;;;;5023431;28;20171;-64
2022/04/21 00:59:33;;;;;;;11.57;7.55;;;7.80;99.90;;;;;;5017400;28;20083;-64
2022/04/21 01:04:48;;;;;;;10.27;7.72;;;7.70;99.90;;;;;;5014078;28;20052;-53
2022/04/21 01:07:14;;;;;;;10.25;7.38;;;7.70;99.90;;;;;;5022985;28;20889;-51
2022/04/21 01:09:41;;;;;;;10.02;7.53;;;7.70;99.90;;;;;;5019349;28;20049;-50
2022/04/21 01:12:11;;;;;;;11.18;8.32;;;7.70;99.90;;;;;;5019531;28;20049;-65
2022/04/21 01:14:38;;;;;;;12.15;7.70;;;7.60;99.90;;;;;;5021073;28;20056;-65
2022/04/21 01:17:09;;;;;;;11.23;8.20;;;7.60;99.90;;;;;;5022118;28;20047;-64
2022/04/21 01:19:35;;;;;;;11.15;7.68;;;7.50;99.90;;;;;;5014510;28;20550;-64
2022/04/21 01:22:02;;;;;;;10.52;7.75;;;7.50;99.90;;;;;;5018413;28;20053;-64
2022/04/21 01:24:28;;;;;;;10.88;7.20;;;7.40;99.90;;;;;;5009051;28;20037;-64
2022/04/21 01:26:55;;;;;;;12.82;7.93;;;7.40;99.90;;;;;;5020439;28;20050;-65
2022/04/21 01:29:21;;;;;;;11.43;7.88;;;7.40;99.90;;;;;;5024176;28;20046;-64
2022/04/21 01:31:48;;;;;;;12.10;8.85;;;7.40;99.90;;;;;;5020501;28;20049;-64
2022/04/21 01:34:14;;;;;;;10.85;8.20;;;7.40;99.90;;;;;;5022056;28;20064;-64
2022/04/21 01:41:08;;;;;;;13.95;8.27;;;7.40;99.90;;;;;;5015546;28;20120;-64
2022/04/21 01:42:15;;;;;;;12.98;9.50;;;7.30;99.90;;;;;;5006371;28;20045;-53
2022/04/21 01:44:42;;;;;;;9.43;8.18;;;7.30;99.90;;;;;;5020841;28;20045;-49
2022/04/21 01:47:09;;;;;;;14.70;8.85;;;7.30;99.90;;;;;;5019717;28;20060;-62
2022/04/21 01:49:35;;;;;;;11.85;9.80;;;7.20;99.90;;;;;;5021267;28;20111;-49
2022/04/21 01:52:02;;;;;;;11.63;8.05;;;7.20;99.90;;;;;;5021686;28;20543;-52
2022/04/21 01:54:28;;;;;;;11.10;8.60;;;7.20;99.90;;;;;;5023171;28;20464;-50
2022/04/21 01:56:54;;;;;;;13.50;9.18;;;7.20;99.90;;;;;;5019238;28;20045;-53
2022/04/21 01:59:20;;;;;;;12.25;9.07;;;7.20;99.90;;;;;;5004236;28;20061;-52
2022/04/21 02:01:46;;;;;;;11.50;9.23;;;7.10;99.90;;;;;;5002587;28;20778;-51
2022/04/21 02:04:12;;;;;;;12.73;9.80;;;7.10;99.90;;;;;;4990860;28;20142;-64
2022/04/21 02:06:38;;;;;;;13.02;9.23;;;7.10;99.90;;;;;;5018538;28;20064;-63
2022/04/21 02:09:04;;;;;;;15.30;9.45;;;7.10;99.90;;;;;;5018962;28;20033;-64
2022/04/21 02:11:30;;;;;;;12.23;9.23;;;7.10;99.90;;;;;;5021048;28;20231;-64
2022/04/21 02:13:56;;;;;;;16.17;9.88;;;7.00;99.90;;;;;;5020457;28;20086;-64
2022/04/21 02:16:23;;;;;;;13.20;9.65;;;7.00;99.90;;;;;;5020710;28;20128;-64
2022/04/21 02:18:50;;;;;;;11.82;9.90;;;7.00;99.90;;;;;;5008424;28;20103;-63
2022/04/21 02:21:16;;;;;;;11.75;9.77;;;7.00;99.90;;;;;;5023597;28;20790;-49
2022/04/21 02:23:42;;;;;;;11.95;9.35;;;7.00;99.90;;;;;;5022471;28;20057;-49
2022/04/21 02:26:09;;;;;;;12.70;9.55;;;7.00;99.90;;;;;;5026040;28;20881;-50
2022/04/21 02:28:35;;;;;;;16.00;10.90;;;7.00;99.90;;;;;;5025322;28;20058;-50
2022/04/21 02:31:01;;;;;;;12.73;10.05;;;7.00;99.90;;;;;;5023340;28;20807;-49
2022/04/21 02:33:27;;;;;;;12.32;9.82;;;7.00;99.90;;;;;;5026076;28;20452;-51
2022/04/21 02:35:53;;;;;;;12.13;9.75;;;7.00;99.90;;;;;;5022016;28;20057;-48
2022/04/21 02:38:19;;;;;;;13.95;10.32;;;7.00;99.90;;;;;;5023631;28;20056;-64
2022/04/21 02:40:46;;;;;;;15.30;10.70;;;7.00;99.90;;;;;;5023648;28;20084;-64
2022/04/21 02:43:12;;;;;;;14.23;11.05;;;7.00;99.90;;;;;;4991423;28;20737;-64
2022/04/21 02:45:39;;;;;;;12.85;10.07;;;7.00;99.90;;;;;;5003665;28;20046;-64
2022/04/21 02:48:05;;;;;;;15.02;9.75;;;7.00;99.90;;;;;;5023829;28;20041;-65
2022/04/21 02:50:31;;;;;;;12.63;10.35;;;7.00;99.90;;;;;;5024228;28;20054;-65
2022/04/21 02:52:58;;;;;;;11.93;10.02;;;7.00;99.90;;;;;;5021101;28;20053;-64
2022/04/21 02:58:09;;;;;;;12.77;10.25;;;6.90;99.90;;;;;;5025730;28;20521;-64
2022/04/21 03:00:35;;;;;;;12.48;10.85;;;6.90;99.90;;;;;;5023474;28;20076;-64
2022/04/21 03:03:01;;;;;;;11.90;10.38;;;6.90;99.90;;;;;;5022937;28;20053;-64
2022/04/21 03:05:27;;;;;;;13.27;9.48;;;6.90;99.90;;;;;;5022265;28;20120;-64
2022/04/21 03:07:54;;;;;;;13.73;9.98;;;6.80;99.90;;;;;;5006868;28;20049;-64
2022/04/21 03:10:20;;;;;;;12.10;10.80;;;6.80;99.90;;;;;;5004971;28;20042;-52
2022/04/21 03:12:47;;;;;;;14.02;9.82;;;6.80;99.90;;;;;;5018570;28;20058;-53
2022/04/21 03:15:13;;;;;;;13.20;10.20;;;6.80;99.90;;;;;;5014391;28;20168;-50
2022/04/21 03:17:41;;;;;;;13.90;11.13;;;6.80;99.90;;;;;;5017897;28;20054;-50
2022/04/21 03:20:08;;;;;;;13.15;10.68;;;6.80;99.90;;;;;;5023466;28;20045;-64
2022/04/21 03:25:20;;;;;;;18.15;10.98;;;6.70;99.90;;;;;;5017561;28;20053;-50
2022/04/21 03:27:46;;;;;;;12.93;10.38;;;6.70;99.90;;;;;;5019594;28;20052;-50
2022/04/21 03:30:13;;;;;;;14.43;10.93;;;6.60;99.90;;;;;;5024923;28;20057;-49
2022/04/21 03:32:39;;;;;;;14.88;10.98;;;6.60;99.90;;;;;;5024494;28;20130;-50
2022/04/21 03:35:06;;;;;;;13.38;10.57;;;6.60;99.90;;;;;;5023549;28;20389;-64
2022/04/21 03:37:33;;;;;;;16.15;11.38;;;6.60;99.90;;;;;;5014529;28;20449;-63
2022/04/21 03:39:59;;;;;;;14.10;10.85;;;6.50;99.90;;;;;;5023119;28;20073;-64
2022/04/21 03:42:27;;;;;;;15.48;11.77;;;6.60;99.90;;;;;;5022093;28;20168;-50
2022/04/21 03:44:54;;;;;;;13.15;10.98;;;6.50;99.90;;;;;;5025932;28;20684;-51
2022/04/21 03:47:21;;;;;;;14.73;11.68;;;6.50;99.90;;;;;;5002793;28;20049;-50
2022/04/21 03:49:47;;;;;;;13.85;10.95;;;6.40;99.90;;;;;;5022368;28;20148;-52
2022/04/21 03:52:14;;;;;;;14.45;11.25;;;6.40;99.90;;;;;;5023521;28;20104;-52
2022/04/21 03:54:40;;;;;;;14.02;11.18;;;6.40;99.90;;;;;;5009718;28;20059;-49
2022/04/21 03:57:07;;;;;;;14.30;11.52;;;6.40;99.90;;;;;;5013358;28;20041;-49
2022/04/21 03:59:34;;;;;;;14.02;11.00;;;6.40;99.90;;;;;;5022078;28;20060;-64
2022/04/21 04:02:02;;;;;;;15.50;11.75;;;6.40;99.90;;;;;;5020084;28;20125;-64
2022/04/21 04:04:29;;;;;;;19.33;11.63;;;6.30;99.90;;;;;;5015240;28;20659;-64
2022/04/21 04:12:36;;;;;;;15.73;12.10;;;6.20;99.90;;;;;;5023783;28;20059;-64
2022/04/21 04:15:04;;;;;;;13.32;10.75;;;6.20;99.90;;;;;;5018868;28;20064;-65
2022/04/21 04:17:31;;;;;;;13.13;11.25;;;6.20;99.90;;;;;;5021186;28;20099;-64
2022/04/21 04:19:57;;;;;;;15.20;12.45;;;6.20;99.90;;;;;;5006030;28;20512;-49
2022/04/21 04:22:24;;;;;;;13.60;11.00;;;6.20;99.90;;;;;;5024388;28;20128;-53
2022/04/21 04:24:55;;;;;;;15.15;11.23;;;6.20;99.90;;;;;;5021257;28;20085;-49
2022/04/21 04:27:22;;;;;;;14.95;11.90;;;6.20;99.90;;;;;;5020447;28;20115;-49
2022/04/21 04:29:48;;;;;;;14.05;11.00;;;6.20;99.90;;;;;;5021539;28;20701;-49
2022/04/21 04:32:15;;;;;;;16.08;11.40;;;6.10;99.90;;;;;;5023413;28;20885;-51
2022/04/21 04:34:43;;;;;;;12.05;10.70;;;6.10;99.90;;;;;;4987959;28;20038;-65
2022/04/21 04:37:10;;;;;;;13.80;12.30;;;6.10;99.90;;;;;;5020839;28;20049;-65
2022/04/21 04:39:37;;;;;;;14.35;11.82;;;6.10;99.90;;;;;;5017104;28;20053;-65
2022/04/21 04:42:20;;;;;;;14.05;11.07;;;6.10;99.90;;;;;;5016729;28;20042;-65
2022/04/21 04:44:49;;;;;;;13.27;11.38;;;6.10;99.90;;;;;;5020289;28;20762;-64
2022/04/21 04:47:16;;;;;;;15.48;11.45;;;6.10;99.90;;;;;;5019772;28;20045;-65
2022/04/21 04:49:42;;;;;;;14.13;12.18;;;6.10;99.90;;;;;;5020288;28;20152;-65
2022/04/21 04:52:08;;;;;;;15.18;12.25;;;6.10;99.90;;;;;;5019627;28;20053;-65
2022/04/21 04:54:34;;;;;;;17.35;12.73;;;6.10;99.90;;;;;;5023690;28;20057;-65
2022/04/21 04:57:01;;;;;;;14.93;11.32;;;6.20;99.90;;;;;;5021090;28;20051;-65
2022/04/21 04:59:27;;;;;;;14.02;11.88;;;6.20;99.90;;;;;;5021774;28;20049;-65
2022/04/21 05:01:53;;;;;;;13.38;11.98;;;6.20;99.90;;;;;;5002638;28;20568;-65
2022/04/21 05:04:20;;;;;;;14.20;11.77;;;6.30;99.90;;;;;;5021798;28;20068;-65
2022/04/21 05:06:57;;;;;;;12.77;11.13;;;6.30;99.90;;;;;;5019348;28;20828;-49
2022/04/21 05:09:24;;;;;;;15.10;12.32;;;6.30;99.90;;;;;;5035706;28;20116;-49
2022/04/21 05:11:53;;;;;;;14.15;11.80;;;6.40;99.90;;;;;;5022236;28;20045;-51
2022/04/21 05:14:20;;;;;;;16.52;12.52;;;6.40;99.90;;;;;;5010854;28;20057;-50
2022/04/21 05:16:47;;;;;;;13.45;11.50;;;6.50;99.90;;;;;;5022689;28;20057;-48
2022/04/21 05:19:15;;;;;;;15.43;11.35;;;6.60;99.90;;;;;;5021451;28;20081;-65
2022/04/21 05:21:41;;;;;;;14.38;11.15;;;6.70;99.90;;;;;;5020818;28;20049;-65
2022/04/21 05:24:09;;;;;;;15.25;11.93;;;6.80;99.90;;;;;;5022382;28;20128;-65
2022/04/21 05:26:37;;;;;;;13.73;10.00;;;6.90;99.90;;;;;;5017825;28;20409;-65
2022/04/21 05:31:59;;;;;;;12.27;10.48;;;7.20;99.90;;;;;;4986859;28;20505;-64
2022/04/21 05:34:27;;;;;;;12.40;10.77;;;7.40;99.90;;;;;;5028934;28;20049;-51
2022/04/21 05:36:54;;;;;;;12.25;9.75;;;7.50;99.90;;;;;;5023553;28;20065;-65
2022/04/21 05:39:21;;;;;;;14.35;10.20;;;7.60;99.90;;;;;;5006705;28;20058;-65
2022/04/21 05:41:47;;;;;;;14.20;9.68;;;7.60;99.90;;;;;;5020662;28;20131;-65
2022/04/21 05:44:14;;;;;;;13.38;9.15;;;7.70;99.90;;;;;;5021067;28;20187;-65
2022/04/21 05:46:41;;;;;;;11.05;8.65;;;7.90;99.90;;;;;;4995558;28;20090;-65
2022/04/21 05:49:07;;;;;;;11.38;9.60;;;8.10;99.90;;;;;;5009025;28;20855;-65
2022/04/21 05:51:34;;;;;;;10.20;8.73;;;8.30;99.90;;;;;;5018298;28;20420;-65
2022/04/21 05:54:05;;;;;;;11.35;9.40;;;8.40;99.90;;;;;;5020072;28;20061;-64
2022/04/21 05:56:31;;;;;;;11.23;8.68;;;8.60;99.90;;;;;;5016997;28;20076;-64
2022/04/21 05:58:58;;;;;;;16.02;9.18;;;8.70;99.90;;;;;;5012282;28;20071;-64
2022/04/21 06:01:24;;;;;;;10.05;8.40;;;8.80;99.90;;;;;;5017939;28;20133;-66
2022/04/21 06:03:52;;;;;;;10.68;8.40;;;9.00;99.90;;;;;;5016499;28;20111;-64
2022/04/21 06:06:18;;;;;;;10.23;8.10;;;9.10;99.90;;;;;;5016222;28;20069;-50
2022/04/21 06:08:44;;;;;;;10.52;8.93;;;9.20;99.90;;;;;;5017421;28;20052;-51
2022/04/21 06:11:14;;;;;;;40.53;10.73;;;9.30;99.90;;;;;;5014848;28;20056;-50
2022/04/21 06:13:41;;;;;;;15.90;8.88;;;9.40;99.90;;;;;;5012359;28;20480;-51
2022/04/21 06:16:08;;;;;;;11.25;7.20;;;9.60;99.90;;;;;;5014018;28;20049;-51
2022/04/21 06:18:38;;;;;;;10.45;8.00;;;9.60;99.90;;;;;;5017757;28;20128;-53
2022/04/21 06:21:05;;;;;;;9.63;8.02;;;9.80;99.90;;;;;;5013124;28;20045;-52
2022/04/21 06:23:31;;;;;;;9.25;7.82;;;9.90;99.90;;;;;;5014058;28;20053;-49
2022/04/21 06:26:00;;;;;;;9.50;6.97;;;10.00;99.90;;;;;;5038635;28;20045;-65
2022/04/21 06:28:27;;;;;;;9.15;6.65;;;10.00;99.90;;;;;;5024641;28;20783;-65
2022/04/21 06:30:54;;;;;;;10.82;8.50;;;10.20;99.90;;;;;;5009033;28;20049;-65
2022/04/21 06:33:20;;;;;;;56.35;12.02;;;10.30;99.90;;;;;;5027531;28;20045;-63
2022/04/21 06:35:46;;;;;;;8.02;5.45;;;10.50;99.90;;;;;;5017596;28;20049;-66
2022/04/21 06:38:13;;;;;;;14.73;11.30;;;10.60;99.90;;;;;;5000786;28;20112;-63
2022/04/21 06:40:40;;;;;;;13.25;10.95;;;10.70;99.90;;;;;;5012180;28;20092;-67
2022/04/21 06:48:37;;;;;;;10.25;8.95;;;11.40;99.90;;;;;;5007900;28;20045;-66
2022/04/21 06:51:05;;;;;;;7.00;5.80;;;11.50;99.90;;;;;;5002433;28;20482;-54
2022/04/21 06:53:32;;;;;;;10.75;8.52;;;11.60;99.90;;;;;;5019013;28;20180;-55
2022/04/21 06:55:58;;;;;;;11.45;7.43;;;11.90;99.90;;;;;;5006192;28;20068;-53
2022/04/21 06:58:24;;;;;;;7.22;4.90;;;12.10;99.90;;;;;;5011519;28;20061;-66
2022/04/21 07:00:50;;;;;;;8.82;5.97;;;12.20;99.90;;;;;;5010995;28;20060;-67
2022/04/21 07:03:16;;;;;;;7.75;4.68;;;12.50;99.90;;;;;;5012793;28;20132;-57
2022/04/21 07:05:43;;;;;;;6.93;4.70;;;12.70;99.90;;;;;;5012672;28;20142;-54
2022/04/21 07:08:09;;;;;;;11.95;8.45;;;12.90;99.90;;;;;;4984483;28;20513;-66
2022/04/21 07:10:36;;;;;;;10.23;5.60;;;12.90;99.90;;;;;;5002282;28;20430;-54
2022/04/21 07:13:09;;;;;;;11.30;9.65;;;13.20;99.90;;;;;;5010798;28;20060;-66
2022/04/21 07:15:36;;;;;;;11.00;7.25;;;13.30;99.90;;;;;;4971264;28;20049;-66
2022/04/21 07:18:02;;;;;;;10.57;7.32;;;13.60;99.90;;;;;;5003251;28;20129;-67
2022/04/21 07:20:28;;;;;;;4.80;3.90;;;13.80;99.90;;;;;;5007071;28;20143;-66
2022/04/21 07:22:54;;;;;;;10.40;8.25;;;14.00;99.90;;;;;;5011600;28;20582;-54
2022/04/21 07:25:20;;;;;;;6.90;4.13;;;14.10;99.10;;;;;;5006810;28;20049;-55
2022/04/21 07:27:47;;;;;;;10.10;7.03;;;14.40;90.90;;;;;;5005832;28;20042;-54
2022/04/21 07:30:13;;;;;;;9.75;7.07;;;14.70;72.00;;;;;;5015263;28;20057;-55
2022/04/21 07:32:39;;;;;;;7.43;5.78;;;15.00;59.50;;;;;;5014526;28;20053;-55
2022/04/21 07:35:06;;;;;;;8.85;5.43;;;14.90;57.70;;;;;;5006636;28;20050;-55
2022/04/21 07:37:33;;;;;;;18.63;16.42;;;14.90;58.30;;;;;;5006451;28;20107;-54
2022/04/21 07:39:59;;;;;;;8.07;6.00;;;15.30;55.80;;;;;;5005547;28;20052;-54
2022/04/21 07:42:27;;;;;;;6.20;3.20;;;15.50;55.20;;;;;;5009364;28;20045;-54
2022/04/21 07:44:53;;;;;;;13.02;9.45;;;15.60;55.10;;;;;;5007011;28;20127;-54
2022/04/21 07:47:20;;;;;;;8.75;4.65;;;15.70;53.30;;;;;;5012745;28;20053;-54
2022/04/21 07:49:46;;;;;;;10.30;8.23;;;15.80;53.40;;;;;;5016029;28;20610;-54
2022/04/21 07:55:09;;;;;;;8.88;3.88;;;16.40;52.20;;;;;;5006023;28;20780;-66
2022/04/21 07:57:35;;;;;;;9.43;8.20;;;16.30;51.50;;;;;;5014725;28;20048;-66
2022/04/21 08:00:04;;;;;;;12.80;10.07;;;16.30;51.40;;;;;;5012433;28;20113;-66
2022/04/21 08:02:39;;;;;;;8.70;5.97;;;16.60;51.80;;;;;;5017789;28;20123;-66
2022/04/21 08:05:06;;;;;;;14.48;6.80;;;16.60;51.10;;;;;;5009509;28;20056;-66
2022/04/21 08:07:33;;;;;;;11.98;7.75;;;16.80;51.00;;;;;;5005134;28;20050;-55
2022/04/21 08:09:59;;;;;;;8.68;3.72;;;17.00;51.70;;;;;;4993902;28;20077;-54
2022/04/21 08:12:25;;;;;;;45.92;9.90;;;17.10;49.60;;;;;;4994496;28;20413;-54
2022/04/21 08:14:52;;;;;;;5.78;3.85;;;17.30;48.70;;;;;;4993595;28;20362;-65
2022/04/21 08:17:18;;;;;;;17.70;15.85;;;17.10;48.10;;;;;;5014445;28;20064;-63
2022/04/21 08:19:44;;;;;;;7.63;4.85;;;17.50;48.60;;;;;;5011160;28;20413;-66
2022/04/21 08:22:10;;;;;;;6.75;4.13;;;17.60;47.90;;;;;;5006431;28;20077;-65
2022/04/21 08:32:51;;;;;;;7.90;5.28;;;17.90;46.20;;;;;;5013219;28;20064;-64
2022/04/21 08:35:17;;;;;;;10.93;4.90;;;18.00;46.30;;;;;;5000447;28;20411;-66
2022/04/21 08:37:45;;;;;;;47.35;8.43;;;18.10;46.50;;;;;;5008411;28;20837;-66
2022/04/21 08:40:11;;;;;;;9.93;4.65;;;18.50;46.20;;;;;;5005566;28;20052;-66
2022/04/21 08:42:40;;;;;;;5.68;3.60;;;18.50;45.80;;;;;;5015525;28;20049;-66
2022/04/21 08:45:08;;;;;;;3.70;2.35;;;18.50;44.30;;;;;;5008941;28;20057;-66
2022/04/21 08:47:37;;;;;;;5.95;4.25;;;18.90;45.20;;;;;;5010877;28;20119;-66
2022/04/21 08:50:09;;;;;;;5.30;3.03;;;19.10;45.30;;;;;;5010189;28;20073;-66
2022/04/21 08:52:36;;;;;;;63.88;11.90;;;19.00;44.10;;;;;;5007263;28;20058;-64
2022/04/21 08:55:03;;;;;;;16.38;13.30;;;19.10;44.30;;;;;;5010462;28;20116;-65
2022/04/21 08:57:30;;;;;;;9.60;6.45;;;19.20;44.50;;;;;;5012310;28;20057;-64
2022/04/21 08:59:58;;;;;;;12.52;7.88;;;18.90;44.70;;;;;;5012972;28;20486;-64
2022/04/21 09:02:37;;;;;;;6.82;5.68;;;18.90;44.20;;;;;;4997694;28;20053;-65
2022/04/21 09:05:05;;;;;;;10.75;9.05;;;19.30;44.00;;;;;;5010047;28;20351;-61
2022/04/21 09:07:32;;;;;;;14.38;11.27;;;19.70;44.50;;;;;;4996463;28;20063;-61
2022/04/21 09:10:07;;;;;;;26.88;24.10;;;19.80;43.90;;;;;;5009947;28;20046;-61
2022/04/21 09:12:36;;;;;;;15.27;13.63;;;20.20;43.70;;;;;;5005552;28;20068;-61
2022/04/21 09:15:07;;;;;;;15.73;12.20;;;20.40;43.10;;;;;;5018103;28;20828;-64
2022/04/21 09:17:51;;;;;;;6.72;2.47;;;20.20;43.00;;;;;;4986130;28;20103;-62
2022/04/21 09:20:23;;;;;;;4.85;2.60;;;20.30;41.90;;;;;;5003238;28;20112;-62
2022/04/21 09:22:56;;;;;;;7.57;4.53;;;20.20;41.10;;;;;;5004413;28;20041;-57
2022/04/21 09:25:24;;;;;;;43.90;35.78;;;20.40;41.10;;;;;;5014789;28;20049;-62
2022/04/21 09:27:51;;;;;;;8.55;6.38;;;20.10;41.70;;;;;;5016333;28;20165;-63
2022/04/21 09:30:18;;;;;;;9.85;4.80;;;19.90;40.90;;;;;;4997393;28;20045;-63
2022/04/21 09:32:59;;;;;;;32.55;29.30;;;20.10;41.00;;;;;;5011908;28;20077;-55
2022/04/21 09:35:27;;;;;;;10.25;5.50;;;20.20;41.20;;;;;;5014663;28;20560;-55
2022/04/21 09:37:57;;;;;;;7.53;2.97;;;20.50;41.30;;;;;;4995535;28;20067;-56
2022/04/21 09:40:26;;;;;;;4.07;2.47;;;20.60;41.30;;;;;;5020332;28;20050;-55
2022/04/21 09:42:54;;;;;;;5.50;2.72;;;20.60;40.70;;;;;;5015826;28;20394;-55
2022/04/21 09:48:20;;;;;;;5.60;2.33;;;20.90;39.90;;;;;;5021036;28;20053;-54
2022/04/21 09:50:51;;;;;;;10.25;3.13;;;21.20;38.90;;;;;;5016334;28;20412;-54
2022/04/21 09:53:19;;;;;;;9.65;2.80;;;21.30;40.40;;;;;;5014659;28;20045;-53
2022/04/21 09:55:47;;;;;;;3.53;2.30;;;21.60;39.90;;;;;;4994076;28;20504;-53
2022/04/21 09:58:14;;;;;;;8.02;2.58;;;21.40;39.20;;;;;;5020244;28;20293;-54
2022/04/21 10:00:44;;;;;;;4.57;2.30;;;21.70;39.30;;;;;;5022420;28;20053;-55
2022/04/21 10:03:11;;;;;;;5.45;2.30;;;22.10;39.20;;;;;;4988309;28;20050;-55
2022/04/21 10:05:41;;;;;;;7.70;2.80;;;22.00;38.40;;;;;;4974593;28;20056;-55
2022/04/21 10:08:09;;;;;;;3.53;2.60;;;22.20;38.90;;;;;;5010829;28;20515;-55
2022/04/21 10:10:37;;;;;;;5.70;2.58;;;22.30;38.50;;;;;;5016984;28;20104;-55
2022/04/21 10:13:05;;;;;;;10.50;3.03;;;22.30;38.10;;;;;;5013789;28;20673;-55
2022/04/21 10:15:31;;;;;;;7.20;2.95;;;22.40;38.00;;;;;;4992661;28;20037;-56
2022/04/21 10:17:57;;;;;;;4.43;2.30;;;22.20;38.20;;;;;;5020849;28;20087;-55
2022/04/21 10:20:26;;;;;;;8.75;2.67;;;22.50;37.10;;;;;;5003644;28;20054;-55
2022/04/21 10:22:54;;;;;;;7.70;3.03;;;22.30;37.40;;;;;;5007751;28;20081;-57
2022/04/21 10:25:34;;;;;;;8.48;2.80;;;22.30;37.60;;;;;;5010316;28;20405;-55
2022/04/21 10:28:00;;;;;;;4.75;2.83;;;22.40;37.20;;;;;;5011406;28;20078;-55
2022/04/21 10:30:29;;;;;;;6.03;4.25;;;23.00;38.00;;;;;;4986985;28;20053;-59
2022/04/21 10:33:01;;;;;;;14.60;8.25;;;23.10;37.50;;;;;;5012716;28;20520;-55
2022/04/21 10:35:27;;;;;;;22.88;20.40;;;23.30;36.10;;;;;;5001327;28;20077;-56
2022/04/21 10:38:12;;;;;;;6.18;4.72;;;22.90;36.40;;;;;;5013666;28;20053;-55
2022/04/21 10:40:55;;;;;;;8.73;6.18;;;23.30;36.30;;;;;;4998079;28;20567;-55
2022/04/21 10:43:22;;;;;;;16.98;15.25;;;23.20;35.70;;;;;;5008905;28;20041;-55
2022/04/21 10:46:06;;;;;;;11.20;7.95;;;23.50;36.80;;;;;;5009146;28;20120;-56
2022/04/21 10:48:43;;;;;;;6.85;3.45;;;23.80;35.70;;;;;;5012237;28;20080;-54
2022/04/21 10:51:30;;;;;;;9.13;4.95;;;23.80;34.80;;;;;;5021142;28;20049;-56
2022/04/21 10:59:31;;;;;;;9.20;3.63;;;23.80;35.20;;;;;;5012350;28;20046;-61
2022/04/21 11:02:38;;;;;;;10.98;8.52;;;23.70;34.60;;;;;;5011121;28;20054;-62
2022/04/21 11:05:23;;;;;;;17.35;15.65;;;23.80;34.50;;;;;;4998361;28;20437;-62
2022/04/21 11:07:54;;;;;;;20.92;18.83;;;23.80;34.70;;;;;;5013662;28;20038;-63
2022/04/21 11:10:28;;;;;;;4.38;2.83;;;23.90;35.50;;;;;;5017890;28;20381;-63
2022/04/21 11:12:54;;;;;;;10.35;9.35;;;24.10;34.40;;;;;;5022350;28;20045;-63
2022/04/21 11:15:37;;;;;;;9.27;6.13;;;23.90;34.90;;;;;;5023465;28;20464;-62
2022/04/21 11:18:11;;;;;;;6.13;3.50;;;23.30;35.30;;;;;;5016595;28;20049;-62
2022/04/21 11:20:40;;;;;;;7.50;6.25;;;23.80;35.00;;;;;;5010009;28;20104;-63
2022/04/21 11:23:29;;;;;;;4.20;2.67;;;23.70;35.70;;;;;;4988264;28;20030;-62
2022/04/21 11:26:09;;;;;;;7.30;4.18;;;23.50;36.60;;;;;;5014863;28;20080;-62
2022/04/21 11:28:41;;;;;;;4.57;3.15;;;24.00;35.50;;;;;;5035288;28;20047;-62
2022/04/21 11:31:07;;;;;;;4.75;3.13;;;23.50;35.30;;;;;;5009940;28;20050;-63
2022/04/21 11:33:35;;;;;;;4.72;3.10;;;23.90;35.40;;;;;;5010410;28;20045;-63
2022/04/21 11:36:09;;;;;;;5.10;3.05;;;23.50;35.50;;;;;;5007594;28;20049;-63
2022/04/21 11:38:41;;;;;;;4.35;2.60;;;23.70;35.30;;;;;;5007161;28;20420;-61
2022/04/21 11:41:10;;;;;;;;;;;24.10;34.80;;;;;;5003252;28;20767;-62
2022/04/21 11:43:37;;;;;;;8.00;5.47;;;24.30;33.80;;;;;;4989371;28;19928;-62
2022/04/21 11:46:05;;;;;;;24.75;22.30;;;23.70;33.70;;;;;;5007626;28;20045;-62
2022/04/21 11:48:34;;;;;;;15.40;13.77;;;24.10;34.70;;;;;;5017308;28;20041;-61
2022/04/21 11:51:01;;;;;;;17.48;15.77;;;23.90;36.00;;;;;;5006684;28;20112;-61
2022/04/21 11:53:36;;;;;;;9.48;7.25;;;23.90;34.70;;;;;;5013371;28;20067;-61
2022/04/21 11:56:07;;;;;;;8.93;2.83;;;24.10;34.00;;;;;;5016246;28;20580;-62
2022/04/21 11:58:38;;;;;;;;;;;24.10;33.00;;;;;;5003986;28;20057;-61
2022/04/21 12:06:46;;;;;;;35.80;32.05;;;24.30;34.20;;;;;;5004210;28;20038;-63
2022/04/21 12:09:15;;;;;;;14.38;12.80;;;24.90;34.60;;;;;;5004801;28;20809;-63
2022/04/21 12:11:59;;;;;;;12.20;10.88;;;25.10;33.50;;;;;;5005927;28;20044;-63
2022/04/21 12:14:27;;;;;;;18.42;16.15;;;24.80;34.40;;;;;;5023084;28;20060;-63
2022/04/21 12:17:02;;;;;;;17.08;13.00;;;24.30;35.00;;;;;;5023894;28;20077;-62
2022/04/21 12:19:35;;;;;;;7.53;4.13;;;24.20;35.50;;;;;;5014134;28;20055;-54
2022/04/21 12:22:12;;;;;;;7.88;4.60;;;24.20;35.40;;;;;;5003733;28;20093;-54
2022/04/21 12:24:41;;;;;;;9.68;8.40;;;24.50;35.50;;;;;;5004767;28;20684;-54
2022/04/21 12:27:23;;;;;;;5.53;3.83;;;24.80;35.50;;;;;;5007834;28;20046;-52
2022/04/21 12:30:08;;;;;;;10.88;9.05;;;24.90;33.00;;;;;;4986694;28;20137;-57
2022/04/21 12:41:11;;;;;;;11.55;10.32;;;23.80;36.10;;;;;;5021716;28;20088;-50
2022/04/21 12:43:38;;;;;;;21.35;17.20;;;24.10;35.80;;;;;;5018588;28;20167;-50
2022/04/21 12:46:04;;;;;;;9.35;7.60;;;24.40;35.90;;;;;;5006017;28;20571;-64
2022/04/21 12:48:30;;;;;;;6.65;5.03;;;24.00;35.90;;;;;;5022529;28;20041;-64
2022/04/21 12:50:56;;;;;;;8.05;6.55;;;24.20;35.80;;;;;;5021903;28;20707;-65
2022/04/21 12:53:30;;;;;;;9.70;6.93;;;24.70;35.90;;;;;;5020879;28;20073;-64
2022/04/21 12:56:11;;;;;;;14.35;12.82;;;24.80;35.70;;;;;;5015186;28;20042;-64
2022/04/21 12:58:38;;;;;;;23.40;21.02;;;24.50;35.30;;;;;;5020052;28;20119;-64
2022/04/21 13:01:05;;;;;;;12.23;10.73;;;24.60;35.80;;;;;;5023048;28;20497;-52
2022/04/21 13:03:32;;;;;;;22.58;20.23;;;24.60;35.50;;;;;;5005144;28;20069;-51
2022/04/21 13:05:59;;;;;;;17.15;15.23;;;25.00;35.80;;;;;;4991889;28;20504;-52
2022/04/21 13:08:27;;;;;;;13.38;12.10;;;25.40;35.10;;;;;;5002795;28;20084;-53
2022/04/21 13:10:55;;;;;;;9.57;8.02;;;25.40;35.10;;;;;;5018609;28;20041;-52
2022/04/21 13:13:23;;;;;;;5.88;4.05;;;25.50;34.70;;;;;;5023470;28;20049;-50
2022/04/21 13:15:50;;;;;;;11.95;10.70;;;25.40;34.90;;;;;;4988199;28;20606;-50
2022/04/21 13:18:16;;;;;;;12.65;11.43;;;25.80;34.10;;;;;;5021298;28;20075;-54
2022/04/21 13:23:29;;;;;;;6.82;5.50;;;25.70;33.70;;;;;;5017812;28;20046;-53
2022/04/21 13:25:55;;;;;;;5.25;4.25;;;25.60;33.20;;;;;;4969691;28;20042;-52
2022/04/21 13:28:22;;;;;;;8.25;5.75;;;25.50;33.10;;;;;;5002038;28;20096;-52
2022/04/21 13:33:21;;;;;;;7.95;6.93;;;25.50;32.80;;;;;;5001501;28;20410;-52
2022/04/21 13:33:35;;;;;;;9.98;5.10;;;25.50;34.10;;;;;;4985960;28;20049;-51
2022/04/21 13:36:02;;;;;;;7.93;4.38;;;25.70;33.30;;;;;;5004953;28;20053;-51
2022/04/21 13:38:29;;;;;;;6.75;4.78;;;26.00;33.90;;;;;;4984900;28;20636;-51
2022/04/21 13:40:55;;;;;;;6.03;4.43;;;25.90;33.50;;;;;;5021120;28;20045;-53
2022/04/21 13:43:21;;;;;;;9.43;7.40;;;25.40;33.90;;;;;;5005151;28;20049;-62
2022/04/21 13:45:48;;;;;;;11.55;6.75;;;25.30;34.00;;;;;;5006202;28;20048;-62
2022/04/21 13:48:14;;;;;;;18.80;16.10;;;25.30;34.50;;;;;;5003822;28;20045;-53
2022/04/21 13:50:41;;;;;;;6.68;5.20;;;25.40;34.60;;;;;;5019079;28;20539;-48
2022/04/21 13:53:07;;;;;;;8.05;5.05;;;25.40;34.10;;;;;;5023494;28;20116;-52